Startpagina
METAR-TAF:

METAR-TAF

Vliegvelden :

Flughafen Mönchengladbach

Mönchengladbach, Duitsland

breedte: 51-13-49N, lengte: 006-30-16E, hoogte: 38 m

Actueel weer

Dit bericht is 38 minuten geleden gemaakt, om 18:50 UTC
Wind 6 kt uit het noordwesten
Temperatuur 21°C
Vochtigheid 40%
Druk 1001 hPa
Zicht 10 km of meer

METAR: EDLN 031850Z AUTO 31006KT 9999 // NCD 21/07 Q1001

Tijdstip: 21:28 (19:28 UTC)

Verwachting

Dit bericht is 2 uur en het 28 minuten geleden gemaakt, om 17:00 UTC
Verwachting geldig van 03 om 18 UTC tot 04 om 03 UTC
Wind 5 kt uit het westnoordwesten
Zicht 10 km of meer
geen wolken onder 1500 m en geen cumulonimbus

TAF: EDLN 031700Z 0318/0403 29005KT CAVOK

Waarnemingen en weersverwachtingen van meer dan 4000 vliegvelden (METAR en TAF).

De beschikbare stations zijn de gele en rode punten op de kaart.

Ga met uw muis naar het station om de naam te zien.

Klik dan om waarnemingen en weersverwachtingen te zien.

kaart wijzigen: klik op de groene knoppen met een zwart kruis om in te zoomen, op de groene knop met een streepje om uit te zoomen of op de groene pijlen voor aangrenzende kaarten.


METAR-TAF: